sensor_id;sensor_type;location;lat;lon;timestamp;P1;durP1;ratioP1;P2;durP2;ratioP2
4053;SDS011;2042;47.956;9.222;2023-02-07T00:00:08;579.07;;;545.03;;
4053;SDS011;2042;47.956;9.222;2023-02-07T00:02:45;1487.37;;;811.47;;
4053;SDS011;2042;47.956;9.222;2023-02-07T00:05:12;1179.17;;;815.23;;
4053;SDS011;2042;47.956;9.222;2023-02-07T00:07:39;1999.90;;;999.90;;
4053;SDS011;2042;47.956;9.222;2023-02-07T00:10:05;446.10;;;417.83;;
4053;SDS011;2042;47.956;9.222;2023-02-07T00:12:32;540.13;;;506.63;;
4053;SDS011;2042;47.956;9.222;2023-02-07T00:14:59;997.40;;;644.37;;
4053;SDS011;2042;47.956;9.222;2023-02-07T00:17:24;1438.90;;;765.47;;
4053;SDS011;2042;47.956;9.222;2023-02-07T00:19:52;413.17;;;384.53;;
4053;SDS011;2042;47.956;9.222;2023-02-07T00:22:18;1496.13;;;818.87;;
4053;SDS011;2042;47.956;9.222;2023-02-07T00:24:43;314.13;;;292.30;;
4053;SDS011;2042;47.956;9.222;2023-02-07T00:27:09;1472.77;;;797.70;;
4053;SDS011;2042;47.956;9.222;2023-02-07T00:29:35;419.10;;;392.93;;
4053;SDS011;2042;47.956;9.222;2023-02-07T00:32:01;1521.07;;;842.50;;
4053;SDS011;2042;47.956;9.222;2023-02-07T00:34:27;456.80;;;428.97;;
4053;SDS011;2042;47.956;9.222;2023-02-07T00:36:52;1437.67;;;762.63;;
4053;SDS011;2042;47.956;9.222;2023-02-07T00:39:18;988.67;;;636.23;;
4053;SDS011;2042;47.956;9.222;2023-02-07T00:41:44;1461.63;;;786.43;;
4053;SDS011;2042;47.956;9.222;2023-02-07T00:44:10;1460.60;;;785.90;;
4053;SDS011;2042;47.956;9.222;2023-02-07T00:46:36;1999.90;;;999.90;;
4053;SDS011;2042;47.956;9.222;2023-02-07T00:49:03;148.60;;;134.37;;
4053;SDS011;2042;47.956;9.222;2023-02-07T00:51:29;1438.67;;;764.53;;
4053;SDS011;2042;47.956;9.222;2023-02-07T00:53:56;1999.90;;;999.90;;
4053;SDS011;2042;47.956;9.222;2023-02-07T00:56:23;1999.90;;;999.90;;
4053;SDS011;2042;47.956;9.222;2023-02-07T00:58:50;1999.90;;;999.90;;
4053;SDS011;2042;47.956;9.222;2023-02-07T01:01:16;1407.40;;;734.67;;
4053;SDS011;2042;47.956;9.222;2023-02-07T01:03:42;176.43;;;160.40;;
4053;SDS011;2042;47.956;9.222;2023-02-07T01:06:08;922.80;;;572.73;;
4053;SDS011;2042;47.956;9.222;2023-02-07T01:08:34;1999.90;;;999.90;;
4053;SDS011;2042;47.956;9.222;2023-02-07T01:11:01;245.20;;;224.13;;
4053;SDS011;2042;47.956;9.222;2023-02-07T01:13:31;293.43;;;271.90;;
4053;SDS011;2042;47.956;9.222;2023-02-07T01:15:57;310.80;;;288.67;;
4053;SDS011;2042;47.956;9.222;2023-02-07T01:18:23;1999.90;;;999.90;;
4053;SDS011;2042;47.956;9.222;2023-02-07T01:20:49;1400.77;;;727.70;;
4053;SDS011;2042;47.956;9.222;2023-02-07T01:23:15;1999.90;;;999.90;;
4053;SDS011;2042;47.956;9.222;2023-02-07T01:25:41;443.53;;;415.47;;
4053;SDS011;2042;47.956;9.222;2023-02-07T01:28:08;1391.10;;;718.47;;
4053;SDS011;2042;47.956;9.222;2023-02-07T01:30:34;1449.90;;;775.47;;
4053;SDS011;2042;47.956;9.222;2023-02-07T01:33:00;385.07;;;361.27;;
4053;SDS011;2042;47.956;9.222;2023-02-07T01:35:26;274.33;;;253.00;;
4053;SDS011;2042;47.956;9.222;2023-02-07T01:37:51;819.53;;;472.30;;
4053;SDS011;2042;47.956;9.222;2023-02-07T01:40:17;344.37;;;319.33;;
4053;SDS011;2042;47.956;9.222;2023-02-07T01:42:43;903.43;;;553.53;;
4053;SDS011;2042;47.956;9.222;2023-02-07T01:45:27;192.70;;;174.77;;
4053;SDS011;2042;47.956;9.222;2023-02-07T01:47:53;363.80;;;333.90;;
4053;SDS011;2042;47.956;9.222;2023-02-07T01:50:21;1999.90;;;999.90;;
4053;SDS011;2042;47.956;9.222;2023-02-07T01:52:47;432.37;;;404.90;;
4053;SDS011;2042;47.956;9.222;2023-02-07T01:55:14;1999.90;;;999.90;;
4053;SDS011;2042;47.956;9.222;2023-02-07T01:57:44;949.47;;;595.80;;
4053;SDS011;2042;47.956;9.222;2023-02-07T02:00:11;232.53;;;213.77;;
4053;SDS011;2042;47.956;9.222;2023-02-07T02:02:38;344.13;;;320.60;;
4053;SDS011;2042;47.956;9.222;2023-02-07T02:05:04;383.10;;;354.67;;
4053;SDS011;2042;47.956;9.222;2023-02-07T02:07:31;356.70;;;332.07;;
4053;SDS011;2042;47.956;9.222;2023-02-07T02:09:59;302.40;;;279.00;;
4053;SDS011;2042;47.956;9.222;2023-02-07T02:38:27;820.37;;;472.30;;
4053;SDS011;2042;47.956;9.222;2023-02-07T02:41:01;1999.90;;;999.90;;
4053;SDS011;2042;47.956;9.222;2023-02-07T02:46:15;877.10;;;529.07;;
4053;SDS011;2042;47.956;9.222;2023-02-07T02:48:44;438.80;;;410.97;;
4053;SDS011;2042;47.956;9.222;2023-02-07T02:51:10;1009.00;;;654.53;;
4053;SDS011;2042;47.956;9.222;2023-02-07T02:53:36;620.97;;;586.20;;
4053;SDS011;2042;47.956;9.222;2023-02-07T03:07:28;268.33;;;248.10;;
4053;SDS011;2042;47.956;9.222;2023-02-07T03:10:05;306.03;;;283.20;;
4053;SDS011;2042;47.956;9.222;2023-02-07T03:18:50;1999.90;;;999.90;;
4053;SDS011;2042;47.956;9.222;2023-02-07T03:23:47;608.73;;;574.47;;
4053;SDS011;2042;47.956;9.222;2023-02-07T03:26:16;218.13;;;200.40;;
4053;SDS011;2042;47.956;9.222;2023-02-07T03:28:42;315.30;;;294.00;;
4053;SDS011;2042;47.956;9.222;2023-02-07T03:31:10;406.10;;;380.30;;
4053;SDS011;2042;47.956;9.222;2023-02-07T03:33:39;454.27;;;425.17;;
4053;SDS011;2042;47.956;9.222;2023-02-07T03:36:07;467.83;;;440.80;;
4053;SDS011;2042;47.956;9.222;2023-02-07T03:38:39;253.47;;;233.83;;
4053;SDS011;2042;47.956;9.222;2023-02-07T03:41:06;382.20;;;357.30;;
4053;SDS011;2042;47.956;9.222;2023-02-07T03:43:37;323.97;;;303.23;;
4053;SDS011;2042;47.956;9.222;2023-02-07T03:46:07;216.37;;;199.07;;
4053;SDS011;2042;47.956;9.222;2023-02-07T03:48:33;1482.27;;;806.03;;
4053;SDS011;2042;47.956;9.222;2023-02-07T03:50:59;449.90;;;421.83;;
4053;SDS011;2042;47.956;9.222;2023-02-07T03:53:25;315.87;;;287.93;;
4053;SDS011;2042;47.956;9.222;2023-02-07T03:55:51;329.70;;;307.00;;
4053;SDS011;2042;47.956;9.222;2023-02-07T03:58:17;424.37;;;399.10;;
4053;SDS011;2042;47.956;9.222;2023-02-07T04:00:43;285.77;;;265.20;;
4053;SDS011;2042;47.956;9.222;2023-02-07T04:03:09;225.03;;;208.37;;
4053;SDS011;2042;47.956;9.222;2023-02-07T04:05:35;538.37;;;508.33;;
4053;SDS011;2042;47.956;9.222;2023-02-07T04:08:00;243.73;;;224.90;;
4053;SDS011;2042;47.956;9.222;2023-02-07T04:10:26;447.17;;;412.30;;
4053;SDS011;2042;47.956;9.222;2023-02-07T04:12:52;356.30;;;330.77;;
4053;SDS011;2042;47.956;9.222;2023-02-07T04:15:17;236.13;;;217.87;;
4053;SDS011;2042;47.956;9.222;2023-02-07T04:17:43;327.73;;;306.37;;
4053;SDS011;2042;47.956;9.222;2023-02-07T04:20:09;302.27;;;281.00;;
4053;SDS011;2042;47.956;9.222;2023-02-07T04:22:35;193.13;;;176.47;;
4053;SDS011;2042;47.956;9.222;2023-02-07T04:25:01;340.47;;;318.13;;
4053;SDS011;2042;47.956;9.222;2023-02-07T04:27:27;233.93;;;216.03;;
4053;SDS011;2042;47.956;9.222;2023-02-07T04:29:53;467.90;;;441.23;;
4053;SDS011;2042;47.956;9.222;2023-02-07T04:32:19;482.53;;;455.30;;
4053;SDS011;2042;47.956;9.222;2023-02-07T04:34:44;406.70;;;377.87;;
4053;SDS011;2042;47.956;9.222;2023-02-07T04:37:11;274.67;;;255.33;;
4053;SDS011;2042;47.956;9.222;2023-02-07T04:39:37;293.73;;;274.73;;
4053;SDS011;2042;47.956;9.222;2023-02-07T04:42:03;184.20;;;168.00;;
4053;SDS011;2042;47.956;9.222;2023-02-07T04:44:28;504.03;;;474.50;;
4053;SDS011;2042;47.956;9.222;2023-02-07T04:46:55;336.77;;;316.00;;
4053;SDS011;2042;47.956;9.222;2023-02-07T04:49:20;448.10;;;421.97;;
4053;SDS011;2042;47.956;9.222;2023-02-07T04:51:46;283.97;;;264.53;;
4053;SDS011;2042;47.956;9.222;2023-02-07T04:54:12;234.30;;;216.77;;
4053;SDS011;2042;47.956;9.222;2023-02-07T04:56:38;119.07;;;97.23;;
4053;SDS011;2042;47.956;9.222;2023-02-07T04:59:04;331.60;;;306.53;;
4053;SDS011;2042;47.956;9.222;2023-02-07T05:01:30;368.00;;;346.10;;
4053;SDS011;2042;47.956;9.222;2023-02-07T05:03:56;337.10;;;315.57;;
4053;SDS011;2042;47.956;9.222;2023-02-07T05:06:21;145.57;;;131.13;;
4053;SDS011;2042;47.956;9.222;2023-02-07T05:08:47;222.93;;;205.80;;
4053;SDS011;2042;47.956;9.222;2023-02-07T05:11:13;442.60;;;413.30;;
4053;SDS011;2042;47.956;9.222;2023-02-07T05:13:40;117.73;;;80.47;;
4053;SDS011;2042;47.956;9.222;2023-02-07T05:16:06;201.33;;;185.53;;
4053;SDS011;2042;47.956;9.222;2023-02-07T05:18:31;263.83;;;243.33;;
4053;SDS011;2042;47.956;9.222;2023-02-07T05:20:57;202.53;;;185.47;;
4053;SDS011;2042;47.956;9.222;2023-02-07T05:23:23;134.87;;;118.60;;
4053;SDS011;2042;47.956;9.222;2023-02-07T05:25:49;123.80;;;98.63;;
4053;SDS011;2042;47.956;9.222;2023-02-07T05:28:15;155.50;;;139.97;;
4053;SDS011;2042;47.956;9.222;2023-02-07T05:30:40;162.87;;;147.57;;
4053;SDS011;2042;47.956;9.222;2023-02-07T05:33:06;117.30;;;82.20;;
4053;SDS011;2042;47.956;9.222;2023-02-07T05:35:32;201.10;;;183.23;;
4053;SDS011;2042;47.956;9.222;2023-02-07T05:38:00;338.67;;;315.90;;
4053;SDS011;2042;47.956;9.222;2023-02-07T05:40:28;275.13;;;256.30;;
4053;SDS011;2042;47.956;9.222;2023-02-07T05:42:54;222.73;;;204.47;;
4053;SDS011;2042;47.956;9.222;2023-02-07T05:45:20;120.67;;;89.07;;
4053;SDS011;2042;47.956;9.222;2023-02-07T05:47:45;121.80;;;92.87;;
4053;SDS011;2042;47.956;9.222;2023-02-07T05:50:11;165.23;;;149.00;;
4053;SDS011;2042;47.956;9.222;2023-02-07T05:52:37;1999.90;;;999.90;;
4053;SDS011;2042;47.956;9.222;2023-02-07T05:55:03;1999.90;;;999.90;;
4053;SDS011;2042;47.956;9.222;2023-02-07T05:57:29;1999.90;;;999.90;;
4053;SDS011;2042;47.956;9.222;2023-02-07T05:59:55;1999.90;;;999.90;;
4053;SDS011;2042;47.956;9.222;2023-02-07T06:02:21;1999.90;;;999.90;;
4053;SDS011;2042;47.956;9.222;2023-02-07T06:04:47;1999.90;;;999.90;;
4053;SDS011;2042;47.956;9.222;2023-02-07T06:07:13;1999.90;;;999.90;;
4053;SDS011;2042;47.956;9.222;2023-02-07T06:09:39;422.30;;;393.80;;
4053;SDS011;2042;47.956;9.222;2023-02-07T06:12:04;340.67;;;319.23;;
4053;SDS011;2042;47.956;9.222;2023-02-07T06:14:30;198.83;;;182.40;;
4053;SDS011;2042;47.956;9.222;2023-02-07T06:16:56;140.90;;;126.60;;
4053;SDS011;2042;47.956;9.222;2023-02-07T06:19:22;222.37;;;204.87;;
4053;SDS011;2042;47.956;9.222;2023-02-07T06:21:47;198.00;;;180.37;;
4053;SDS011;2042;47.956;9.222;2023-02-07T06:24:13;213.73;;;193.30;;
4053;SDS011;2042;47.956;9.222;2023-02-07T06:26:39;276.63;;;257.47;;
4053;SDS011;2042;47.956;9.222;2023-02-07T06:29:05;217.13;;;200.03;;
4053;SDS011;2042;47.956;9.222;2023-02-07T06:31:31;1999.90;;;999.90;;
4053;SDS011;2042;47.956;9.222;2023-02-07T06:33:57;663.03;;;626.00;;
4053;SDS011;2042;47.956;9.222;2023-02-07T06:36:23;638.43;;;603.23;;
4053;SDS011;2042;47.956;9.222;2023-02-07T06:38:48;608.27;;;575.17;;
4053;SDS011;2042;47.956;9.222;2023-02-07T06:41:17;584.37;;;553.37;;
4053;SDS011;2042;47.956;9.222;2023-02-07T06:43:43;645.10;;;610.30;;
4053;SDS011;2042;47.956;9.222;2023-02-07T06:46:08;664.00;;;626.50;;
4053;SDS011;2042;47.956;9.222;2023-02-07T06:48:34;636.50;;;601.70;;
4053;SDS011;2042;47.956;9.222;2023-02-07T06:50:59;710.20;;;667.90;;
4053;SDS011;2042;47.956;9.222;2023-02-07T06:53:25;852.90;;;802.87;;
4053;SDS011;2042;47.956;9.222;2023-02-07T06:55:52;842.37;;;793.87;;
4053;SDS011;2042;47.956;9.222;2023-02-07T06:58:18;806.77;;;760.70;;
4053;SDS011;2042;47.956;9.222;2023-02-07T07:00:43;1999.90;;;999.90;;
4053;SDS011;2042;47.956;9.222;2023-02-07T07:03:11;746.97;;;705.73;;
4053;SDS011;2042;47.956;9.222;2023-02-07T07:05:39;736.37;;;695.80;;
4053;SDS011;2042;47.956;9.222;2023-02-07T07:08:05;1999.90;;;999.90;;
4053;SDS011;2042;47.956;9.222;2023-02-07T07:10:31;1999.90;;;999.90;;
4053;SDS011;2042;47.956;9.222;2023-02-07T07:12:57;1999.90;;;999.90;;
4053;SDS011;2042;47.956;9.222;2023-02-07T07:15:23;1999.90;;;999.90;;
4053;SDS011;2042;47.956;9.222;2023-02-07T07:17:49;1999.90;;;999.90;;
4053;SDS011;2042;47.956;9.222;2023-02-07T07:20:15;1999.90;;;999.90;;
4053;SDS011;2042;47.956;9.222;2023-02-07T07:22:41;1999.90;;;999.90;;
4053;SDS011;2042;47.956;9.222;2023-02-07T07:25:07;1999.90;;;999.90;;
4053;SDS011;2042;47.956;9.222;2023-02-07T07:27:34;1999.90;;;999.90;;
4053;SDS011;2042;47.956;9.222;2023-02-07T07:30:00;1999.90;;;999.90;;
4053;SDS011;2042;47.956;9.222;2023-02-07T07:32:26;1999.90;;;999.90;;
4053;SDS011;2042;47.956;9.222;2023-02-07T07:34:51;1999.90;;;999.90;;
4053;SDS011;2042;47.956;9.222;2023-02-07T07:37:18;1999.90;;;999.90;;
4053;SDS011;2042;47.956;9.222;2023-02-07T07:39:44;1999.90;;;999.90;;
4053;SDS011;2042;47.956;9.222;2023-02-07T07:42:10;1999.90;;;999.90;;
4053;SDS011;2042;47.956;9.222;2023-02-07T07:44:35;1999.90;;;999.90;;
4053;SDS011;2042;47.956;9.222;2023-02-07T07:47:01;1999.90;;;999.90;;
4053;SDS011;2042;47.956;9.222;2023-02-07T07:49:27;1999.90;;;999.90;;
4053;SDS011;2042;47.956;9.222;2023-02-07T07:51:53;1999.90;;;999.90;;
4053;SDS011;2042;47.956;9.222;2023-02-07T07:54:18;1999.90;;;999.90;;
4053;SDS011;2042;47.956;9.222;2023-02-07T07:56:44;1999.90;;;999.90;;
4053;SDS011;2042;47.956;9.222;2023-02-07T07:59:10;1999.90;;;999.90;;
4053;SDS011;2042;47.956;9.222;2023-02-07T08:01:35;1999.90;;;999.90;;
4053;SDS011;2042;47.956;9.222;2023-02-07T08:04:01;1999.90;;;999.90;;
4053;SDS011;2042;47.956;9.222;2023-02-07T08:06:28;1999.90;;;999.90;;
4053;SDS011;2042;47.956;9.222;2023-02-07T08:08:54;1999.90;;;999.90;;
4053;SDS011;2042;47.956;9.222;2023-02-07T08:11:21;1999.90;;;999.90;;
4053;SDS011;2042;47.956;9.222;2023-02-07T08:13:47;1999.90;;;999.90;;
4053;SDS011;2042;47.956;9.222;2023-02-07T08:16:13;1999.90;;;999.90;;
4053;SDS011;2042;47.956;9.222;2023-02-07T08:18:39;1999.90;;;999.90;;
4053;SDS011;2042;47.956;9.222;2023-02-07T08:21:05;1999.90;;;999.90;;
4053;SDS011;2042;47.956;9.222;2023-02-07T08:23:31;1999.90;;;999.90;;
4053;SDS011;2042;47.956;9.222;2023-02-07T08:25:57;1999.90;;;999.90;;
4053;SDS011;2042;47.956;9.222;2023-02-07T08:28:23;1999.90;;;999.90;;
4053;SDS011;2042;47.956;9.222;2023-02-07T08:30:49;1999.90;;;999.90;;
4053;SDS011;2042;47.956;9.222;2023-02-07T08:33:15;1999.90;;;999.90;;
4053;SDS011;2042;47.956;9.222;2023-02-07T08:35:41;1999.90;;;999.90;;
4053;SDS011;2042;47.956;9.222;2023-02-07T08:38:07;1999.90;;;999.90;;
4053;SDS011;2042;47.956;9.222;2023-02-07T08:40:33;1999.90;;;999.90;;
4053;SDS011;2042;47.956;9.222;2023-02-07T08:43:00;1999.90;;;999.90;;
4053;SDS011;2042;47.956;9.222;2023-02-07T08:45:26;1999.90;;;999.90;;
4053;SDS011;2042;47.956;9.222;2023-02-07T08:47:51;1999.90;;;999.90;;
4053;SDS011;2042;47.956;9.222;2023-02-07T08:50:17;1999.90;;;999.90;;
4053;SDS011;2042;47.956;9.222;2023-02-07T08:52:43;1999.90;;;999.90;;
4053;SDS011;2042;47.956;9.222;2023-02-07T08:55:09;1999.90;;;999.90;;
4053;SDS011;2042;47.956;9.222;2023-02-07T08:57:35;1999.90;;;999.90;;
4053;SDS011;2042;47.956;9.222;2023-02-07T09:00:02;1999.90;;;999.90;;
4053;SDS011;2042;47.956;9.222;2023-02-07T09:02:29;1999.90;;;999.90;;
4053;SDS011;2042;47.956;9.222;2023-02-07T09:04:55;1999.90;;;999.90;;
4053;SDS011;2042;47.956;9.222;2023-02-07T09:07:21;1999.90;;;999.90;;
4053;SDS011;2042;47.956;9.222;2023-02-07T09:09:46;1999.90;;;999.90;;
4053;SDS011;2042;47.956;9.222;2023-02-07T09:12:12;1999.90;;;999.90;;
4053;SDS011;2042;47.956;9.222;2023-02-07T09:14:38;1999.90;;;999.90;;
4053;SDS011;2042;47.956;9.222;2023-02-07T09:17:04;1999.90;;;999.90;;
4053;SDS011;2042;47.956;9.222;2023-02-07T09:19:31;1999.90;;;999.90;;
4053;SDS011;2042;47.956;9.222;2023-02-07T09:21:56;1999.90;;;999.90;;
4053;SDS011;2042;47.956;9.222;2023-02-07T09:24:22;1999.90;;;999.90;;
4053;SDS011;2042;47.956;9.222;2023-02-07T09:26:48;1999.90;;;999.90;;
4053;SDS011;2042;47.956;9.222;2023-02-07T09:29:14;1999.90;;;999.90;;
4053;SDS011;2042;47.956;9.222;2023-02-07T09:31:40;1999.90;;;999.90;;
4053;SDS011;2042;47.956;9.222;2023-02-07T09:34:07;1999.90;;;999.90;;
4053;SDS011;2042;47.956;9.222;2023-02-07T09:36:33;1999.90;;;999.90;;
4053;SDS011;2042;47.956;9.222;2023-02-07T09:38:59;1999.90;;;999.90;;
4053;SDS011;2042;47.956;9.222;2023-02-07T09:47:19;1999.90;;;999.90;;
4053;SDS011;2042;47.956;9.222;2023-02-07T09:52:32;1999.90;;;999.90;;
4053;SDS011;2042;47.956;9.222;2023-02-07T09:55:00;1999.90;;;999.90;;
4053;SDS011;2042;47.956;9.222;2023-02-07T09:57:31;1999.90;;;999.90;;
4053;SDS011;2042;47.956;9.222;2023-02-07T10:00:05;1999.90;;;999.90;;
4053;SDS011;2042;47.956;9.222;2023-02-07T10:02:43;1999.90;;;999.90;;
4053;SDS011;2042;47.956;9.222;2023-02-07T10:05:16;1999.90;;;999.90;;
4053;SDS011;2042;47.956;9.222;2023-02-07T10:07:44;1999.90;;;999.90;;
4053;SDS011;2042;47.956;9.222;2023-02-07T10:10:13;1999.90;;;999.90;;
4053;SDS011;2042;47.956;9.222;2023-02-07T10:13:04;1999.90;;;999.90;;
4053;SDS011;2042;47.956;9.222;2023-02-07T10:19:00;1999.90;;;999.90;;
4053;SDS011;2042;47.956;9.222;2023-02-07T10:21:41;1999.90;;;999.90;;
4053;SDS011;2042;47.956;9.222;2023-02-07T10:27:09;1999.90;;;999.90;;
4053;SDS011;2042;47.956;9.222;2023-02-07T10:32:38;1999.90;;;999.90;;
4053;SDS011;2042;47.956;9.222;2023-02-07T10:35:17;1999.90;;;999.90;;
4053;SDS011;2042;47.956;9.222;2023-02-07T10:37:50;1999.90;;;999.90;;
4053;SDS011;2042;47.956;9.222;2023-02-07T10:40:23;1999.90;;;999.90;;
4053;SDS011;2042;47.956;9.222;2023-02-07T10:42:58;1999.90;;;999.90;;
4053;SDS011;2042;47.956;9.222;2023-02-07T10:45:34;1999.90;;;999.90;;
4053;SDS011;2042;47.956;9.222;2023-02-07T10:48:00;1999.90;;;999.90;;
4053;SDS011;2042;47.956;9.222;2023-02-07T10:50:26;1999.90;;;999.90;;
4053;SDS011;2042;47.956;9.222;2023-02-07T10:52:53;1999.90;;;999.90;;
4053;SDS011;2042;47.956;9.222;2023-02-07T10:55:42;1999.90;;;999.90;;
4053;SDS011;2042;47.956;9.222;2023-02-07T10:58:13;1999.90;;;999.90;;
4053;SDS011;2042;47.956;9.222;2023-02-07T11:00:40;1999.90;;;999.90;;
4053;SDS011;2042;47.956;9.222;2023-02-07T11:03:12;1999.90;;;999.90;;
4053;SDS011;2042;47.956;9.222;2023-02-07T11:05:57;1999.90;;;999.90;;
4053;SDS011;2042;47.956;9.222;2023-02-07T11:08:27;1999.90;;;999.90;;
4053;SDS011;2042;47.956;9.222;2023-02-07T11:11:20;1999.90;;;999.90;;
4053;SDS011;2042;47.956;9.222;2023-02-07T11:13:53;1999.90;;;999.90;;
4053;SDS011;2042;47.956;9.222;2023-02-07T11:16:21;1999.90;;;999.90;;
4053;SDS011;2042;47.956;9.222;2023-02-07T11:18:55;1999.90;;;999.90;;
4053;SDS011;2042;47.956;9.222;2023-02-07T11:21:39;1999.90;;;999.90;;
4053;SDS011;2042;47.956;9.222;2023-02-07T11:24:10;1999.90;;;999.90;;
4053;SDS011;2042;47.956;9.222;2023-02-07T11:27:01;1999.90;;;999.90;;
4053;SDS011;2042;47.956;9.222;2023-02-07T11:29:31;1999.90;;;999.90;;
4053;SDS011;2042;47.956;9.222;2023-02-07T11:32:01;1999.90;;;999.90;;
4053;SDS011;2042;47.956;9.222;2023-02-07T11:34:28;1999.90;;;999.90;;
4053;SDS011;2042;47.956;9.222;2023-02-07T11:39:47;1999.90;;;999.90;;
4053;SDS011;2042;47.956;9.222;2023-02-07T11:42:18;1999.90;;;999.90;;
4053;SDS011;2042;47.956;9.222;2023-02-07T11:44:46;1999.90;;;999.90;;
4053;SDS011;2042;47.956;9.222;2023-02-07T11:47:47;1999.90;;;999.90;;
4053;SDS011;2042;47.956;9.222;2023-02-07T11:50:06;1999.90;;;999.90;;
4053;SDS011;2042;47.956;9.222;2023-02-07T11:52:37;1999.90;;;999.90;;
4053;SDS011;2042;47.956;9.222;2023-02-07T11:55:08;1999.90;;;999.90;;
4053;SDS011;2042;47.956;9.222;2023-02-07T11:57:37;1999.90;;;999.90;;
4053;SDS011;2042;47.956;9.222;2023-02-07T12:00:05;1999.90;;;999.90;;
4053;SDS011;2042;47.956;9.222;2023-02-07T12:02:41;1999.90;;;999.90;;
4053;SDS011;2042;47.956;9.222;2023-02-07T12:05:34;1999.90;;;999.90;;
4053;SDS011;2042;47.956;9.222;2023-02-07T12:08:03;1999.90;;;999.90;;
4053;SDS011;2042;47.956;9.222;2023-02-07T12:10:37;1999.90;;;999.90;;
4053;SDS011;2042;47.956;9.222;2023-02-07T12:13:21;1999.90;;;999.90;;
4053;SDS011;2042;47.956;9.222;2023-02-07T12:16:20;1999.90;;;999.90;;
4053;SDS011;2042;47.956;9.222;2023-02-07T12:19:00;1999.90;;;999.90;;
4053;SDS011;2042;47.956;9.222;2023-02-07T12:21:36;1999.90;;;999.90;;
4053;SDS011;2042;47.956;9.222;2023-02-07T12:24:20;1999.90;;;999.90;;
4053;SDS011;2042;47.956;9.222;2023-02-07T12:26:52;1999.90;;;999.90;;
4053;SDS011;2042;47.956;9.222;2023-02-07T12:35:04;1999.90;;;999.90;;
4053;SDS011;2042;47.956;9.222;2023-02-07T12:43:13;1999.90;;;999.90;;
4053;SDS011;2042;47.956;9.222;2023-02-07T13:08:11;1999.90;;;999.90;;
4053;SDS011;2042;47.956;9.222;2023-02-07T13:10:53;1999.90;;;999.90;;
4053;SDS011;2042;47.956;9.222;2023-02-07T13:13:48;1999.90;;;999.90;;
4053;SDS011;2042;47.956;9.222;2023-02-07T13:18:41;1999.90;;;999.90;;
4053;SDS011;2042;47.956;9.222;2023-02-07T13:21:26;1999.90;;;999.90;;
4053;SDS011;2042;47.956;9.222;2023-02-07T13:23:58;1999.90;;;999.90;;
4053;SDS011;2042;47.956;9.222;2023-02-07T13:26:26;1999.90;;;999.90;;
4053;SDS011;2042;47.956;9.222;2023-02-07T13:28:53;1999.90;;;999.90;;
4053;SDS011;2042;47.956;9.222;2023-02-07T13:31:22;1999.90;;;999.90;;
4053;SDS011;2042;47.956;9.222;2023-02-07T13:34:02;1999.90;;;999.90;;
4053;SDS011;2042;47.956;9.222;2023-02-07T13:36:36;1999.90;;;999.90;;
4053;SDS011;2042;47.956;9.222;2023-02-07T14:00:16;1999.90;;;999.90;;
4053;SDS011;2042;47.956;9.222;2023-02-07T14:02:55;1999.90;;;999.90;;
4053;SDS011;2042;47.956;9.222;2023-02-07T14:05:25;1999.90;;;999.90;;
4053;SDS011;2042;47.956;9.222;2023-02-07T14:07:57;1999.90;;;999.90;;
4053;SDS011;2042;47.956;9.222;2023-02-07T14:12:59;1999.90;;;999.90;;
4053;SDS011;2042;47.956;9.222;2023-02-07T14:17:59;1999.90;;;999.90;;
4053;SDS011;2042;47.956;9.222;2023-02-07T14:23:16;1999.90;;;999.90;;
4053;SDS011;2042;47.956;9.222;2023-02-07T14:25:44;1999.90;;;999.90;;
4053;SDS011;2042;47.956;9.222;2023-02-07T14:28:18;1999.90;;;999.90;;
4053;SDS011;2042;47.956;9.222;2023-02-07T14:33:20;1999.90;;;999.90;;
4053;SDS011;2042;47.956;9.222;2023-02-07T14:38:40;1999.90;;;999.90;;
4053;SDS011;2042;47.956;9.222;2023-02-07T14:41:32;1999.90;;;999.90;;
4053;SDS011;2042;47.956;9.222;2023-02-07T14:44:02;1999.90;;;999.90;;
4053;SDS011;2042;47.956;9.222;2023-02-07T14:46:32;1999.90;;;999.90;;
4053;SDS011;2042;47.956;9.222;2023-02-07T14:49:11;1999.90;;;999.90;;
4053;SDS011;2042;47.956;9.222;2023-02-07T14:52:06;1999.90;;;999.90;;
4053;SDS011;2042;47.956;9.222;2023-02-07T14:57:45;1999.90;;;999.90;;
4053;SDS011;2042;47.956;9.222;2023-02-07T15:07:43;1999.90;;;999.90;;
4053;SDS011;2042;47.956;9.222;2023-02-07T15:10:21;1999.90;;;999.90;;
4053;SDS011;2042;47.956;9.222;2023-02-07T15:12:52;1999.90;;;999.90;;
4053;SDS011;2042;47.956;9.222;2023-02-07T15:15:19;1999.90;;;999.90;;
4053;SDS011;2042;47.956;9.222;2023-02-07T15:17:55;1999.90;;;999.90;;
4053;SDS011;2042;47.956;9.222;2023-02-07T15:20:30;1999.90;;;999.90;;
4053;SDS011;2042;47.956;9.222;2023-02-07T15:22:59;1999.90;;;999.90;;
4053;SDS011;2042;47.956;9.222;2023-02-07T15:25:26;1999.90;;;999.90;;
4053;SDS011;2042;47.956;9.222;2023-02-07T15:28:36;1999.90;;;999.90;;
4053;SDS011;2042;47.956;9.222;2023-02-07T15:30:59;1999.90;;;999.90;;
4053;SDS011;2042;47.956;9.222;2023-02-07T15:33:37;1999.90;;;999.90;;
4053;SDS011;2042;47.956;9.222;2023-02-07T15:36:25;1999.90;;;999.90;;
4053;SDS011;2042;47.956;9.222;2023-02-07T15:38:57;1999.90;;;999.90;;
4053;SDS011;2042;47.956;9.222;2023-02-07T15:41:24;1999.90;;;999.90;;
4053;SDS011;2042;47.956;9.222;2023-02-07T15:46:24;1999.90;;;999.90;;
4053;SDS011;2042;47.956;9.222;2023-02-07T15:49:06;1999.90;;;999.90;;
4053;SDS011;2042;47.956;9.222;2023-02-07T15:51:35;1999.90;;;999.90;;
4053;SDS011;2042;47.956;9.222;2023-02-07T15:54:05;1999.90;;;999.90;;
4053;SDS011;2042;47.956;9.222;2023-02-07T15:56:31;1999.90;;;999.90;;
4053;SDS011;2042;47.956;9.222;2023-02-07T15:59:01;1999.90;;;999.90;;
4053;SDS011;2042;47.956;9.222;2023-02-07T16:01:34;1999.90;;;999.90;;
4053;SDS011;2042;47.956;9.222;2023-02-07T16:04:03;1999.90;;;999.90;;
4053;SDS011;2042;47.956;9.222;2023-02-07T16:06:29;1999.90;;;999.90;;
4053;SDS011;2042;47.956;9.222;2023-02-07T16:09:00;1999.90;;;999.90;;
4053;SDS011;2042;47.956;9.222;2023-02-07T16:16:55;1999.90;;;999.90;;
4053;SDS011;2042;47.956;9.222;2023-02-07T16:19:26;1999.90;;;999.90;;
4053;SDS011;2042;47.956;9.222;2023-02-07T16:24:34;1999.90;;;999.90;;
4053;SDS011;2042;47.956;9.222;2023-02-07T16:27:03;1999.90;;;999.90;;
4053;SDS011;2042;47.956;9.222;2023-02-07T16:29:30;1999.90;;;999.90;;
4053;SDS011;2042;47.956;9.222;2023-02-07T16:31:56;1999.90;;;999.90;;
4053;SDS011;2042;47.956;9.222;2023-02-07T16:34:22;1999.90;;;999.90;;
4053;SDS011;2042;47.956;9.222;2023-02-07T16:36:49;1999.90;;;999.90;;
4053;SDS011;2042;47.956;9.222;2023-02-07T16:39:16;1999.90;;;999.90;;
4053;SDS011;2042;47.956;9.222;2023-02-07T16:41:44;1999.90;;;999.90;;
4053;SDS011;2042;47.956;9.222;2023-02-07T16:44:14;1999.90;;;999.90;;
4053;SDS011;2042;47.956;9.222;2023-02-07T16:46:46;1999.90;;;999.90;;
4053;SDS011;2042;47.956;9.222;2023-02-07T16:49:19;1999.90;;;999.90;;
4053;SDS011;2042;47.956;9.222;2023-02-07T16:51:46;1999.90;;;999.90;;
4053;SDS011;2042;47.956;9.222;2023-02-07T16:54:12;1999.90;;;999.90;;
4053;SDS011;2042;47.956;9.222;2023-02-07T16:56:38;1999.90;;;999.90;;
4053;SDS011;2042;47.956;9.222;2023-02-07T16:59:06;1999.90;;;999.90;;
4053;SDS011;2042;47.956;9.222;2023-02-07T17:01:45;1999.90;;;999.90;;
4053;SDS011;2042;47.956;9.222;2023-02-07T17:04:11;1999.90;;;999.90;;